createdAt,value
2018-10-21T00:00:21.907Z,11.32
2018-10-21T00:02:50.102Z,11.35
2018-10-21T00:05:18.258Z,11.38
2018-10-21T00:07:46.446Z,11.37
2018-10-21T00:10:14.647Z,11.34
2018-10-21T00:12:42.850Z,11.34
2018-10-21T00:15:11.474Z,11.35
2018-10-21T00:17:39.595Z,11.32
2018-10-21T00:20:08.342Z,11.31
2018-10-21T00:22:36.522Z,11.28
2018-10-21T00:25:05.703Z,11.27
2018-10-21T00:27:33.887Z,11.28
2018-10-21T00:30:02.044Z,11.27
2018-10-21T00:32:35.517Z,11.26
2018-10-21T00:35:03.703Z,11.26
2018-10-21T00:37:31.891Z,11.28
2018-10-21T00:40:00.095Z,11.26
2018-10-21T00:42:28.242Z,11.24
2018-10-21T00:44:56.466Z,11.21
2018-10-21T00:47:24.626Z,11.16
2018-10-21T00:49:52.843Z,11.11
2018-10-21T00:52:21.128Z,11.09
2018-10-21T00:54:49.266Z,11.08
2018-10-21T00:57:17.515Z,11.05
2018-10-21T00:59:45.603Z,11.01
2018-10-21T01:02:13.788Z,11.00
2018-10-21T01:04:41.990Z,11.02
2018-10-21T01:07:10.163Z,11.01
2018-10-21T01:09:38.332Z,10.99
2018-10-21T01:12:06.579Z,11.01
2018-10-21T01:14:34.804Z,11.02
2018-10-21T01:17:02.962Z,11.02
2018-10-21T01:19:31.139Z,11.03
2018-10-21T01:21:59.339Z,11.06
2018-10-21T01:24:27.510Z,11.08
2018-10-21T01:26:55.742Z,11.08
2018-10-21T01:29:23.890Z,11.08
2018-10-21T01:31:52.068Z,11.10
2018-10-21T01:34:20.255Z,11.10
2018-10-21T01:36:48.495Z,11.08
2018-10-21T01:39:16.667Z,11.07
2018-10-21T01:41:44.851Z,11.04
2018-10-21T01:44:13.034Z,11.05
2018-10-21T01:46:41.189Z,11.07
2018-10-21T01:49:09.359Z,11.07
2018-10-21T01:51:37.561Z,11.05
2018-10-21T01:54:05.973Z,11.03
2018-10-21T01:56:34.122Z,11.02
2018-10-21T01:59:02.291Z,11.02
2018-10-21T02:01:30.515Z,11.00
2018-10-21T02:03:58.757Z,10.99
2018-10-21T02:06:26.923Z,10.96
2018-10-21T02:08:57.179Z,10.94
2018-10-21T02:11:25.385Z,10.91
2018-10-21T02:13:53.592Z,10.87
2018-10-21T02:16:21.774Z,10.84
2018-10-21T02:18:56.764Z,10.84
2018-10-21T02:21:25.335Z,10.83
2018-10-21T02:23:54.081Z,10.82
2018-10-21T02:26:22.512Z,10.81
2018-10-21T02:28:50.671Z,10.80
2018-10-21T02:31:18.873Z,10.81
2018-10-21T02:33:47.112Z,10.82
2018-10-21T02:36:15.230Z,10.82
2018-10-21T02:38:43.427Z,10.80
2018-10-21T02:41:29.499Z,10.77
2018-10-21T02:43:57.745Z,10.74
2018-10-21T02:46:26.011Z,10.71
2018-10-21T02:48:55.219Z,10.69
2018-10-21T02:51:23.463Z,10.67
2018-10-21T02:53:51.863Z,10.67
2018-10-21T02:56:20.083Z,10.66
2018-10-21T02:58:48.263Z,10.60
2018-10-21T03:01:16.432Z,10.51
2018-10-21T03:03:44.590Z,10.46
2018-10-21T03:06:12.768Z,10.42
2018-10-21T03:08:40.963Z,10.39
2018-10-21T03:11:09.201Z,10.39
2018-10-21T03:13:37.351Z,10.39
2018-10-21T03:16:05.715Z,10.42
2018-10-21T03:18:33.966Z,10.43
2018-10-21T03:21:03.171Z,10.44
2018-10-21T03:23:31.832Z,10.43
2018-10-21T03:26:00.507Z,10.45
2018-10-21T03:28:28.679Z,10.44
2018-10-21T03:30:56.931Z,10.45
2018-10-21T03:33:25.421Z,10.45
2018-10-21T03:35:53.687Z,10.47
2018-10-21T03:38:21.852Z,10.48
2018-10-21T03:40:50.034Z,10.49
2018-10-21T03:43:18.234Z,10.50
2018-10-21T03:45:46.374Z,10.51
2018-10-21T03:48:15.595Z,10.50
2018-10-21T03:50:43.815Z,10.50
2018-10-21T03:53:12.051Z,10.50
2018-10-21T03:55:41.609Z,10.49
2018-10-21T03:58:09.876Z,10.48
2018-10-21T04:00:38.283Z,10.48
2018-10-21T04:03:06.867Z,10.48
2018-10-21T04:05:35.460Z,10.50
2018-10-21T04:08:03.855Z,10.49
2018-10-21T04:10:32.087Z,10.50
2018-10-21T04:13:00.587Z,10.51
2018-10-21T04:15:28.892Z,10.51
2018-10-21T04:17:57.267Z,10.48
2018-10-21T04:20:25.524Z,10.46
2018-10-21T04:22:56.622Z,10.43
2018-10-21T04:25:25.789Z,10.38
2018-10-21T04:27:54.880Z,10.32
2018-10-21T04:30:25.291Z,10.30
2018-10-21T04:33:59.564Z,10.29
2018-10-21T04:36:29.434Z,10.31
2018-10-21T04:40:08.860Z,10.29
2018-10-21T04:42:37.082Z,10.30
2018-10-21T04:45:06.029Z,10.26
2018-10-21T04:47:34.276Z,10.26
2018-10-21T04:50:02.542Z,10.23
2018-10-21T04:52:31.571Z,10.20
2018-10-21T04:55:06.420Z,10.16
2018-10-21T04:57:35.435Z,10.15
2018-10-21T05:00:04.019Z,10.13
2018-10-21T05:02:32.600Z,10.12
2018-10-21T05:05:00.966Z,10.12
2018-10-21T05:07:29.205Z,10.11
2018-10-21T05:09:57.436Z,10.09
2018-10-21T05:12:25.577Z,10.11
2018-10-21T05:14:53.730Z,10.11
2018-10-21T05:17:21.911Z,10.11
2018-10-21T05:19:50.152Z,10.12
2018-10-21T05:22:18.345Z,10.12
2018-10-21T05:24:46.548Z,10.12
2018-10-21T05:27:14.755Z,10.09
2018-10-21T05:29:43.005Z,10.05
2018-10-21T05:32:11.239Z,10.06
2018-10-21T05:34:39.483Z,10.04
2018-10-21T05:37:07.690Z,10.06
2018-10-21T05:39:35.908Z,10.06
2018-10-21T05:42:04.132Z,10.10
2018-10-21T05:44:32.339Z,10.11
2018-10-21T05:47:00.611Z,10.11
2018-10-21T05:49:28.780Z,10.07
2018-10-21T05:51:56.999Z,10.05
2018-10-21T05:54:25.111Z,9.96
2018-10-21T05:56:53.372Z,9.92
2018-10-21T05:59:21.564Z,9.93
2018-10-21T06:01:49.757Z,9.93
2018-10-21T06:04:18.506Z,9.88
2018-10-21T06:06:46.612Z,9.90
2018-10-21T06:09:15.310Z,9.91
2018-10-21T06:11:43.505Z,9.91
2018-10-21T06:14:11.699Z,9.88
2018-10-21T06:16:46.398Z,9.84
2018-10-21T06:19:19.259Z,9.79
2018-10-21T06:21:47.453Z,9.76
2018-10-21T06:24:15.603Z,9.76
2018-10-21T06:26:43.770Z,9.74
2018-10-21T06:29:11.926Z,9.73
2018-10-21T06:31:40.114Z,9.74
2018-10-21T06:34:08.514Z,9.72
2018-10-21T06:36:36.776Z,9.76
2018-10-21T06:39:05.904Z,9.81
2018-10-21T06:41:34.026Z,9.83
2018-10-21T06:44:02.222Z,9.86
2018-10-21T06:46:30.498Z,9.88
2018-10-21T06:48:58.866Z,9.90
2018-10-21T06:51:27.064Z,9.92
2018-10-21T06:53:55.221Z,9.93
2018-10-21T06:56:23.390Z,9.91
2018-10-21T06:58:51.537Z,9.92
2018-10-21T07:01:19.685Z,9.90
2018-10-21T07:03:47.843Z,9.91
2018-10-21T07:06:18.047Z,9.93
2018-10-21T07:08:46.724Z,9.96
2018-10-21T07:11:15.099Z,10.01
2018-10-21T07:13:43.299Z,9.99
2018-10-21T07:16:11.798Z,9.99
2018-10-21T07:18:40.427Z,9.98
2018-10-21T07:21:08.624Z,10.00
2018-10-21T07:23:36.870Z,10.04
2018-10-21T07:26:05.454Z,10.10
2018-10-21T07:28:33.748Z,10.17
2018-10-21T07:31:01.950Z,10.24
2018-10-21T07:33:30.208Z,10.31
2018-10-21T07:35:58.688Z,10.39
2018-10-21T07:38:26.839Z,10.45
2018-10-21T07:40:55.341Z,10.46
2018-10-21T07:43:23.559Z,10.49
2018-10-21T07:45:51.742Z,10.53
2018-10-21T07:48:19.920Z,10.56
2018-10-21T07:50:48.072Z,10.60
2018-10-21T07:53:16.267Z,10.62
2018-10-21T07:55:44.560Z,10.67
2018-10-21T07:58:13.023Z,10.72
2018-10-21T08:00:41.107Z,10.76
2018-10-21T08:03:09.544Z,10.80
2018-10-21T08:05:49.266Z,10.85
2018-10-21T08:08:19.471Z,10.89
2018-10-21T08:10:47.685Z,10.95
2018-10-21T08:13:17.122Z,11.01
2018-10-21T08:15:45.528Z,11.04
2018-10-21T08:18:14.322Z,11.08
2018-10-21T08:20:43.614Z,11.10
2018-10-21T08:23:13.029Z,11.16
2018-10-21T08:25:41.698Z,11.20
2018-10-21T08:28:10.009Z,11.24
2018-10-21T08:30:38.135Z,11.28
2018-10-21T08:33:06.875Z,11.33
2018-10-21T08:35:35.175Z,11.37
2018-10-21T08:38:03.408Z,11.41
2018-10-21T08:40:31.682Z,11.45
2018-10-21T08:42:59.819Z,11.49
2018-10-21T08:45:27.979Z,11.54
2018-10-21T08:47:56.130Z,11.58
2018-10-21T08:50:24.319Z,11.62
2018-10-21T08:52:52.523Z,11.69
2018-10-21T08:55:20.773Z,11.73
2018-10-21T08:57:48.927Z,11.77
2018-10-21T09:00:18.984Z,11.79
2018-10-21T09:02:47.374Z,11.84
2018-10-21T09:05:17.022Z,11.90
2018-10-21T09:07:45.466Z,11.96
2018-10-21T09:10:14.902Z,12.02
2018-10-21T09:12:43.187Z,12.10
2018-10-21T09:15:15.305Z,12.19
2018-10-21T09:17:43.431Z,12.26
2018-10-21T09:20:13.689Z,12.35
2018-10-21T09:22:41.889Z,12.44
2018-10-21T09:25:10.909Z,12.54
2018-10-21T09:27:39.882Z,12.71
2018-10-21T09:30:09.504Z,12.87
2018-10-21T09:32:37.739Z,13.02
2018-10-21T09:35:07.360Z,13.16
2018-10-21T09:37:38.609Z,13.29
2018-10-21T09:40:14.949Z,13.41
2018-10-21T09:42:43.997Z,13.52
2018-10-21T09:45:14.691Z,13.63
2018-10-21T09:47:43.534Z,13.72
2018-10-21T09:50:12.066Z,13.83
2018-10-21T09:52:40.265Z,13.93
2018-10-21T09:55:14.499Z,14.04
2018-10-21T09:57:42.707Z,14.14
2018-10-21T10:00:26.311Z,14.23
2018-10-21T10:03:03.100Z,14.37
2018-10-21T10:05:31.240Z,14.46
2018-10-21T10:07:59.476Z,14.54
2018-10-21T10:10:27.693Z,14.61
2018-10-21T10:12:55.975Z,14.70
2018-10-21T10:15:24.150Z,14.78
2018-10-21T10:17:52.420Z,14.85
2018-10-21T10:20:20.668Z,14.93
2018-10-21T10:22:48.830Z,15.01
2018-10-21T10:25:17.042Z,15.09
2018-10-21T10:27:45.184Z,15.18
2018-10-21T10:30:13.677Z,15.28
2018-10-21T10:32:43.067Z,15.37
2018-10-21T10:35:12.208Z,15.43
2018-10-21T10:37:40.643Z,15.51
2018-10-21T10:40:09.912Z,15.62
2018-10-21T10:42:38.071Z,15.71
2018-10-21T10:45:06.982Z,15.79
2018-10-21T10:47:35.269Z,15.87
2018-10-21T10:50:03.483Z,15.96
2018-10-21T10:52:31.652Z,16.05
2018-10-21T10:54:59.933Z,16.11
2018-10-21T10:57:28.070Z,16.19
2018-10-21T10:59:56.376Z,16.28
2018-10-21T11:02:24.705Z,16.33
2018-10-21T11:04:52.910Z,16.38
2018-10-21T11:07:21.193Z,16.43
2018-10-21T11:09:49.394Z,16.43
2018-10-21T11:12:17.601Z,16.41
2018-10-21T11:14:45.831Z,16.35
2018-10-21T11:17:13.984Z,16.27
2018-10-21T11:19:44.119Z,16.17
2018-10-21T11:22:12.328Z,16.07
2018-10-21T11:24:45.976Z,16.00
2018-10-21T11:27:14.452Z,15.93
2018-10-21T11:29:42.652Z,15.85
2018-10-21T11:32:10.792Z,15.79
2018-10-21T11:34:39.295Z,15.73
2018-10-21T11:37:07.653Z,15.69
2018-10-21T11:39:35.709Z,15.65
2018-10-21T11:42:04.041Z,15.63
2018-10-21T11:44:32.563Z,15.60
2018-10-21T11:47:00.718Z,15.57
2018-10-21T11:49:28.898Z,15.57
2018-10-21T11:51:57.077Z,15.57
2018-10-21T11:54:25.654Z,15.56
2018-10-21T11:56:53.839Z,15.53
2018-10-21T11:59:22.027Z,15.54
2018-10-21T12:01:50.236Z,15.54
2018-10-21T12:04:18.525Z,15.55
2018-10-21T12:06:46.871Z,15.53
2018-10-21T12:09:16.152Z,15.53
2018-10-21T12:11:44.318Z,15.52
2018-10-21T12:14:12.496Z,15.52
2018-10-21T12:16:40.769Z,15.52
2018-10-21T12:19:08.976Z,15.52
2018-10-21T12:21:37.147Z,15.52
2018-10-21T12:24:05.496Z,15.51
2018-10-21T12:26:33.693Z,15.52
2018-10-21T12:29:01.936Z,15.53
2018-10-21T12:31:30.031Z,15.55
2018-10-21T12:33:58.292Z,15.56
2018-10-21T12:36:26.367Z,15.57
2018-10-21T12:38:54.595Z,15.58
2018-10-21T12:41:22.860Z,15.57
2018-10-21T12:43:51.019Z,15.60
2018-10-21T12:46:19.279Z,15.61
2018-10-21T12:48:47.477Z,15.61
2018-10-21T12:51:15.700Z,15.62
2018-10-21T12:53:44.178Z,15.64
2018-10-21T12:56:12.327Z,15.66
2018-10-21T12:58:40.677Z,15.67
2018-10-21T13:01:09.400Z,15.69
2018-10-21T13:03:37.538Z,15.70
2018-10-21T13:06:05.828Z,15.72
2018-10-21T13:08:34.013Z,15.74
2018-10-21T13:11:02.494Z,15.77
2018-10-21T13:13:30.817Z,15.79
2018-10-21T13:15:58.978Z,15.82
2018-10-21T13:18:27.147Z,15.87
2018-10-21T13:20:55.388Z,15.96
2018-10-21T13:23:23.591Z,16.09
2018-10-21T13:25:51.752Z,16.11
2018-10-21T13:28:20.072Z,16.15
2018-10-21T13:30:48.210Z,16.15
2018-10-21T13:33:16.437Z,16.16
2018-10-21T13:35:44.682Z,16.12
2018-10-21T13:38:12.974Z,16.10
2018-10-21T13:40:41.407Z,16.07
2018-10-21T13:43:09.597Z,16.06
2018-10-21T13:45:37.821Z,16.14
2018-10-21T13:48:06.125Z,16.17
2018-10-21T13:50:34.579Z,16.17
2018-10-21T13:53:02.966Z,16.15
2018-10-21T13:55:31.098Z,16.15
2018-10-21T13:57:59.325Z,16.17
2018-10-21T14:00:27.564Z,16.28
2018-10-21T14:02:55.735Z,16.33
2018-10-21T14:05:24.341Z,16.35
2018-10-21T14:07:52.579Z,16.36
2018-10-21T14:10:20.816Z,16.34
2018-10-21T14:12:49.383Z,16.37
2018-10-21T14:15:17.653Z,16.37
2018-10-21T14:17:46.043Z,16.40
2018-10-21T14:20:14.335Z,16.42
2018-10-21T14:22:42.519Z,16.38
2018-10-21T14:25:10.774Z,16.37
2018-10-21T14:27:39.000Z,16.33
2018-10-21T14:30:09.016Z,16.31
2018-10-21T14:32:37.530Z,16.36
2018-10-21T14:35:07.982Z,16.44
2018-10-21T14:37:36.540Z,16.52
2018-10-21T14:40:05.055Z,16.54
2018-10-21T14:42:33.258Z,16.51
2018-10-21T14:45:01.494Z,16.46
2018-10-21T14:47:29.755Z,16.44
2018-10-21T14:49:57.951Z,16.44
2018-10-21T14:52:26.188Z,16.45
2018-10-21T14:54:54.470Z,16.49
2018-10-21T14:57:22.696Z,16.56
2018-10-21T14:59:51.066Z,16.60
2018-10-21T15:02:19.336Z,16.63
2018-10-21T15:04:47.535Z,16.66
2018-10-21T15:07:15.792Z,16.64
2018-10-21T15:09:44.022Z,16.59
2018-10-21T15:12:12.405Z,16.50
2018-10-21T15:14:40.560Z,16.42
2018-10-21T15:17:08.782Z,16.36
2018-10-21T15:19:37.102Z,16.30
2018-10-21T15:22:06.232Z,16.26
2018-10-21T15:24:34.810Z,16.21
2018-10-21T15:27:03.043Z,16.17
2018-10-21T15:29:31.283Z,16.14
2018-10-21T15:31:59.627Z,16.11
2018-10-21T15:34:27.905Z,16.08
2018-10-21T15:36:56.219Z,16.04
2018-10-21T15:39:24.432Z,16.00
2018-10-21T15:41:52.693Z,15.96
2018-10-21T15:44:21.219Z,15.94
2018-10-21T15:46:49.456Z,15.90
2018-10-21T15:49:17.650Z,15.86
2018-10-21T15:51:45.881Z,15.81
2018-10-21T15:54:14.056Z,15.77
2018-10-21T15:56:42.307Z,15.72
2018-10-21T15:59:10.547Z,15.68
2018-10-21T16:01:38.708Z,15.65
2018-10-21T16:04:06.941Z,15.62
2018-10-21T16:06:35.136Z,15.56
2018-10-21T16:09:03.517Z,15.53
2018-10-21T16:11:31.933Z,15.47
2018-10-21T16:14:00.203Z,15.42
2018-10-21T16:16:28.349Z,15.35
2018-10-21T16:18:56.580Z,15.30
2018-10-21T16:21:24.775Z,15.25
2018-10-21T16:23:52.971Z,15.20
2018-10-21T16:26:21.180Z,15.13
2018-10-21T16:28:49.341Z,15.06
2018-10-21T16:31:17.516Z,14.99
2018-10-21T16:33:45.699Z,14.92
2018-10-21T16:36:13.892Z,14.84
2018-10-21T16:38:42.061Z,14.77
2018-10-21T16:41:10.211Z,14.72
2018-10-21T16:43:38.401Z,14.66
2018-10-21T16:46:06.661Z,14.61
2018-10-21T16:48:34.884Z,14.55
2018-10-21T16:51:03.220Z,14.49
2018-10-21T16:53:31.403Z,14.42
2018-10-21T16:55:59.563Z,14.37
2018-10-21T16:58:27.783Z,14.32
2018-10-21T17:00:56.191Z,14.25
2018-10-21T17:03:24.240Z,14.20
2018-10-21T17:05:52.345Z,14.15
2018-10-21T17:08:20.523Z,14.13
2018-10-21T17:10:48.749Z,14.11
2018-10-21T17:13:17.008Z,14.11
2018-10-21T17:15:45.136Z,14.06
2018-10-21T17:18:13.315Z,14.03
2018-10-21T17:20:41.461Z,13.98
2018-10-21T17:23:09.679Z,13.92
2018-10-21T17:25:37.963Z,13.87
2018-10-21T17:28:06.310Z,13.82
2018-10-21T17:30:34.441Z,13.78
2018-10-21T17:33:02.619Z,13.75
2018-10-21T17:35:30.834Z,13.77
2018-10-21T17:37:59.032Z,13.79
2018-10-21T17:40:27.246Z,13.78
2018-10-21T17:42:55.482Z,13.77
2018-10-21T17:45:23.670Z,13.72
2018-10-21T17:47:51.863Z,13.70
2018-10-21T17:50:20.128Z,13.68
2018-10-21T17:52:48.267Z,13.64
2018-10-21T17:55:23.199Z,13.60
2018-10-21T17:57:51.371Z,13.53
2018-10-21T18:00:19.597Z,13.53
2018-10-21T18:02:47.787Z,13.54
2018-10-21T18:05:15.970Z,13.54
2018-10-21T18:07:44.483Z,13.54
2018-10-21T18:10:12.959Z,13.51
2018-10-21T18:12:41.177Z,13.45
2018-10-21T18:15:10.107Z,13.40
2018-10-21T18:17:39.158Z,13.36
2018-10-21T18:20:08.371Z,13.35
2018-10-21T18:22:36.542Z,13.34
2018-10-21T18:25:04.938Z,13.35
2018-10-21T18:27:33.099Z,13.37
2018-10-21T18:30:01.305Z,13.38
2018-10-21T18:32:29.482Z,13.40
2018-10-21T18:34:57.670Z,13.39
2018-10-21T18:37:25.839Z,13.39
2018-10-21T18:39:54.092Z,13.39
2018-10-21T18:42:22.338Z,13.38
2018-10-21T18:44:50.502Z,13.41
2018-10-21T18:47:18.679Z,13.43
2018-10-21T18:49:46.887Z,13.43
2018-10-21T18:52:15.714Z,13.42
2018-10-21T18:54:43.879Z,13.42
2018-10-21T18:57:12.358Z,13.42
2018-10-21T18:59:40.527Z,13.41
2018-10-21T19:02:08.906Z,13.38
2018-10-21T19:04:37.108Z,13.36
2018-10-21T19:07:05.828Z,13.33
2018-10-21T19:09:33.922Z,13.30
2018-10-21T19:12:02.143Z,13.27
2018-10-21T19:14:30.322Z,13.24
2018-10-21T19:16:58.499Z,13.21
2018-10-21T19:19:26.720Z,13.20
2018-10-21T19:21:54.904Z,13.19
2018-10-21T19:24:23.087Z,13.18
2018-10-21T19:26:51.259Z,13.18
2018-10-21T19:29:19.409Z,13.17
2018-10-21T19:31:47.585Z,13.18
2018-10-21T19:34:15.796Z,13.19
2018-10-21T19:36:43.915Z,13.17
2018-10-21T19:39:13.104Z,13.17
2018-10-21T19:41:41.388Z,13.17
2018-10-21T19:44:10.779Z,13.14
2018-10-21T19:46:39.559Z,13.11
2018-10-21T19:49:08.382Z,13.10
2018-10-21T19:51:36.523Z,13.07
2018-10-21T19:54:05.060Z,13.02
2018-10-21T19:56:33.211Z,12.96
2018-10-21T19:59:03.108Z,12.93
2018-10-21T20:01:31.254Z,12.91
2018-10-21T20:03:59.473Z,12.90
2018-10-21T20:06:27.618Z,12.85
2018-10-21T20:08:55.779Z,12.79
2018-10-21T20:11:23.921Z,12.75
2018-10-21T20:13:52.159Z,12.71
2018-10-21T20:16:20.731Z,12.65
2018-10-21T20:18:48.910Z,12.58
2018-10-21T20:21:17.092Z,12.56
2018-10-21T20:23:45.267Z,12.54
2018-10-21T20:26:13.445Z,12.49
2018-10-21T20:28:41.602Z,12.45
2018-10-21T20:31:09.844Z,12.39
2018-10-21T20:33:37.986Z,12.35
2018-10-21T20:36:06.094Z,12.33
2018-10-21T20:38:34.234Z,12.30
2018-10-21T20:41:02.417Z,12.25
2018-10-21T20:43:30.570Z,12.19
2018-10-21T20:45:58.731Z,12.18
2018-10-21T20:48:26.858Z,12.20
2018-10-21T20:50:55.044Z,12.22
2018-10-21T20:53:23.238Z,12.24
2018-10-21T20:55:51.410Z,12.21
2018-10-21T20:58:19.608Z,12.20
2018-10-21T21:00:47.788Z,12.15
2018-10-21T21:03:15.952Z,12.07
2018-10-21T21:05:44.124Z,12.02
2018-10-21T21:08:12.302Z,12.01
2018-10-21T21:10:40.552Z,12.02
2018-10-21T21:13:08.811Z,12.01
2018-10-21T21:15:37.004Z,12.02
2018-10-21T21:18:05.451Z,12.06
2018-10-21T21:20:33.645Z,12.10
2018-10-21T21:23:01.819Z,12.11
2018-10-21T21:25:29.973Z,12.13
2018-10-21T21:27:58.247Z,12.09
2018-10-21T21:30:26.421Z,12.07
2018-10-21T21:32:54.980Z,12.06
2018-10-21T21:35:23.368Z,12.07
2018-10-21T21:37:51.543Z,12.05
2018-10-21T21:40:20.131Z,12.04
2018-10-21T21:42:48.734Z,12.03
2018-10-21T21:45:17.147Z,11.98
2018-10-21T21:47:45.323Z,11.94
2018-10-21T21:50:13.487Z,11.93
2018-10-21T21:52:41.640Z,11.93
2018-10-21T21:55:09.910Z,11.92
2018-10-21T21:57:38.095Z,11.94
2018-10-21T22:00:09.275Z,11.94
2018-10-21T22:02:37.456Z,11.95
2018-10-21T22:05:07.283Z,12.00
2018-10-21T22:07:35.704Z,12.00
2018-10-21T22:10:04.069Z,12.02
2018-10-21T22:12:32.192Z,12.03
2018-10-21T22:15:00.434Z,12.03
2018-10-21T22:17:28.623Z,12.01
2018-10-21T22:19:56.888Z,11.97
2018-10-21T22:22:25.035Z,11.93
2018-10-21T22:24:53.214Z,11.93
2018-10-21T22:27:21.373Z,11.93
2018-10-21T22:29:49.548Z,11.95
2018-10-21T22:32:17.738Z,11.96
2018-10-21T22:34:45.923Z,11.96
2018-10-21T22:37:14.080Z,11.96
2018-10-21T22:39:42.375Z,11.92
2018-10-21T22:42:10.633Z,11.87
2018-10-21T22:44:38.746Z,11.83
2018-10-21T22:47:06.895Z,11.78
2018-10-21T22:49:35.037Z,11.71
2018-10-21T22:52:03.277Z,11.66
2018-10-21T22:54:31.366Z,11.61
2018-10-21T22:56:59.506Z,11.60
2018-10-21T22:59:27.651Z,11.62
2018-10-21T23:01:55.807Z,11.63
2018-10-21T23:04:24.015Z,11.65
2018-10-21T23:06:52.199Z,11.68
2018-10-21T23:09:20.325Z,11.68
2018-10-21T23:11:48.529Z,11.68
2018-10-21T23:14:16.642Z,11.64
2018-10-21T23:16:44.846Z,11.62
2018-10-21T23:19:24.387Z,11.61
2018-10-21T23:21:52.553Z,11.59
2018-10-21T23:24:20.776Z,11.61
2018-10-21T23:26:48.880Z,11.58
2018-10-21T23:29:17.059Z,11.51
2018-10-21T23:31:45.214Z,11.46
2018-10-21T23:34:13.451Z,11.38
2018-10-21T23:36:41.584Z,11.28
2018-10-21T23:39:09.812Z,11.20
2018-10-21T23:41:37.946Z,11.17
2018-10-21T23:44:06.106Z,11.17
2018-10-21T23:46:34.284Z,11.19
2018-10-21T23:49:03.763Z,11.20
2018-10-21T23:51:31.934Z,11.21
2018-10-21T23:54:00.085Z,11.18
2018-10-21T23:56:28.277Z,11.13
2018-10-21T23:58:56.444Z,11.09
